createdAt,value
2018-11-13T00:00:31.147Z,19.97
2018-11-13T00:02:57.498Z,15.20
2018-11-13T00:05:23.515Z,21.77
2018-11-13T00:07:49.500Z,15.40
2018-11-13T00:10:15.476Z,19.63
2018-11-13T00:12:42.147Z,22.73
2018-11-13T00:15:08.150Z,21.87
2018-11-13T00:17:34.859Z,23.33
2018-11-13T00:20:01.592Z,17.20
2018-11-13T00:22:27.563Z,22.77
2018-11-13T00:24:53.564Z,23.07
2018-11-13T00:27:19.580Z,22.80
2018-11-13T00:29:46.250Z,20.80
2018-11-13T00:32:12.226Z,23.13
2018-11-13T00:34:38.193Z,25.23
2018-11-13T00:37:04.160Z,16.93
2018-11-13T00:39:30.103Z,24.07
2018-11-13T00:41:56.843Z,19.23
2018-11-13T00:44:22.805Z,25.23
2018-11-13T00:46:48.805Z,19.97
2018-11-13T00:49:15.489Z,21.60
2018-11-13T00:51:41.474Z,24.80
2018-11-13T00:54:07.451Z,21.43
2018-11-13T00:56:33.407Z,22.27
2018-11-13T00:59:00.136Z,28.83
2018-11-13T01:01:26.085Z,25.47
2018-11-13T01:03:52.054Z,27.27
2018-11-13T01:06:18.005Z,23.87
2018-11-13T01:08:44.740Z,20.70
2018-11-13T01:11:10.691Z,20.43
2018-11-13T01:13:36.669Z,24.73
2018-11-13T01:16:02.662Z,23.00
2018-11-13T01:18:28.615Z,20.63
2018-11-13T01:20:54.600Z,20.57
2018-11-13T01:23:20.569Z,24.00
2018-11-13T01:25:46.558Z,19.13
2018-11-13T01:28:12.534Z,20.47
2018-11-13T01:30:39.295Z,25.60
2018-11-13T01:33:05.264Z,24.27
2018-11-13T01:35:31.239Z,21.67
2018-11-13T01:37:57.224Z,18.27
2018-11-13T01:40:23.186Z,17.37
2018-11-13T01:42:49.166Z,19.47
2018-11-13T01:45:15.107Z,15.07
2018-11-13T01:47:41.073Z,18.37
2018-11-13T01:50:07.021Z,19.97
2018-11-13T01:52:33.157Z,19.97
2018-11-13T01:54:58.957Z,24.50
2018-11-13T01:57:24.986Z,14.37
2018-11-13T01:59:50.940Z,16.43
2018-11-13T02:02:17.652Z,14.43
2018-11-13T02:04:43.647Z,18.40
2018-11-13T02:07:09.616Z,20.37
2018-11-13T02:09:36.360Z,17.63
2018-11-13T02:12:02.309Z,18.87
2018-11-13T02:14:29.023Z,18.23
2018-11-13T02:16:54.985Z,18.00
2018-11-13T02:19:20.968Z,21.30
2018-11-13T02:21:47.670Z,24.67
2018-11-13T02:24:13.619Z,22.83
2018-11-13T02:26:39.598Z,18.80
2018-11-13T02:29:05.543Z,16.13
2018-11-13T02:31:31.509Z,16.70
2018-11-13T02:33:58.203Z,21.87
2018-11-13T02:36:24.174Z,21.03
2018-11-13T02:38:50.870Z,19.87
2018-11-13T02:41:16.864Z,21.37
2018-11-13T02:43:42.798Z,18.07
2018-11-13T02:46:08.790Z,20.43
2018-11-13T02:48:35.492Z,17.43
2018-11-13T02:51:01.486Z,18.57
2018-11-13T02:53:27.445Z,23.47
2018-11-13T02:55:53.422Z,18.10
2018-11-13T02:58:19.433Z,18.83
2018-11-13T03:00:45.405Z,17.70
2018-11-13T03:03:11.402Z,14.40
2018-11-13T03:05:37.374Z,16.77
2018-11-13T03:08:03.359Z,16.30
2018-11-13T03:10:29.322Z,15.80
2018-11-13T03:12:55.277Z,20.73
2018-11-13T03:15:21.213Z,22.23
2018-11-13T03:17:47.172Z,14.83
2018-11-13T03:20:13.194Z,22.13
2018-11-13T03:22:39.132Z,16.00
2018-11-13T03:25:05.103Z,19.13
2018-11-13T03:27:31.048Z,19.03
2018-11-13T03:29:57.020Z,17.60
2018-11-13T03:32:22.976Z,20.03
2018-11-13T03:34:48.941Z,24.40
2018-11-13T03:37:15.690Z,20.60
2018-11-13T03:39:42.396Z,22.93
2018-11-13T03:42:08.398Z,20.63
2018-11-13T03:44:34.376Z,22.30
2018-11-13T03:47:01.098Z,19.97
2018-11-13T03:49:27.063Z,20.30
2018-11-13T03:51:53.051Z,24.23
2018-11-13T03:54:19.004Z,18.97
2018-11-13T03:56:44.987Z,18.43
2018-11-13T03:59:10.979Z,27.57
2018-11-13T04:01:37.009Z,16.87
2018-11-13T04:04:02.946Z,21.97
2018-11-13T04:06:28.888Z,22.77
2018-11-13T04:08:55.627Z,16.23
2018-11-13T04:11:21.577Z,22.43
2018-11-13T04:13:47.581Z,19.10
2018-11-13T04:16:14.298Z,16.90
2018-11-13T04:18:40.264Z,15.93
2018-11-13T04:21:06.221Z,13.97
2018-11-13T04:23:32.948Z,14.10
2018-11-13T04:25:58.898Z,21.73
2018-11-13T04:28:24.888Z,17.90
2018-11-13T04:30:50.998Z,13.00
2018-11-13T04:33:17.578Z,21.63
2018-11-13T04:35:43.577Z,15.73
2018-11-13T04:38:09.526Z,15.70
2018-11-13T04:40:35.501Z,17.70
2018-11-13T04:43:01.472Z,12.23
2018-11-13T04:45:27.469Z,14.83
2018-11-13T04:47:53.429Z,23.20
2018-11-13T04:50:19.415Z,22.20
2018-11-13T04:52:45.389Z,20.33
2018-11-13T04:55:11.383Z,17.83
2018-11-13T04:57:37.360Z,15.50
2018-11-13T05:00:03.435Z,23.47
2018-11-13T05:02:29.546Z,19.10
2018-11-13T05:04:55.526Z,24.17
2018-11-13T05:07:21.549Z,19.13
2018-11-13T05:09:47.629Z,21.33
2018-11-13T05:12:13.635Z,20.80
2018-11-13T05:14:39.585Z,17.23
2018-11-13T05:17:05.601Z,17.33
2018-11-13T05:19:32.342Z,22.53
2018-11-13T05:21:58.324Z,17.20
2018-11-13T05:24:24.278Z,17.43
2018-11-13T05:26:50.286Z,20.97
2018-11-13T05:29:16.240Z,19.60
2018-11-13T05:31:42.214Z,20.67
2018-11-13T05:34:08.173Z,11.23
2018-11-13T05:36:34.141Z,17.23
2018-11-13T05:39:00.870Z,23.93
2018-11-13T05:41:27.584Z,15.53
2018-11-13T05:43:53.578Z,20.40
2018-11-13T05:46:19.538Z,21.57
2018-11-13T05:48:45.531Z,17.47
2018-11-13T05:51:11.537Z,20.20
2018-11-13T05:53:37.523Z,17.10
2018-11-13T05:56:03.525Z,17.87
2018-11-13T05:58:29.515Z,17.93
2018-11-13T06:00:55.534Z,16.77
2018-11-13T06:03:21.485Z,18.87
2018-11-13T06:05:47.460Z,20.70
2018-11-13T06:08:13.430Z,19.80
2018-11-13T06:10:39.448Z,19.87
2018-11-13T06:13:05.437Z,21.53
2018-11-13T06:15:31.430Z,15.40
2018-11-13T06:17:57.372Z,20.97
2018-11-13T06:20:23.352Z,20.03
2018-11-13T06:22:49.410Z,20.40
2018-11-13T06:25:15.331Z,17.77
2018-11-13T06:27:42.049Z,18.93
2018-11-13T06:30:08.004Z,23.70
2018-11-13T06:32:34.716Z,15.90
2018-11-13T06:35:00.677Z,15.30
2018-11-13T06:37:26.668Z,21.87
2018-11-13T06:39:53.382Z,18.77
2018-11-13T06:42:19.400Z,22.00
2018-11-13T06:44:45.374Z,16.30
2018-11-13T06:47:11.346Z,18.57
2018-11-13T06:49:37.434Z,17.50
2018-11-13T06:52:03.322Z,18.00
2018-11-13T06:54:30.057Z,16.40
2018-11-13T06:56:56.770Z,14.13
2018-11-13T06:59:23.504Z,15.53
2018-11-13T07:01:49.470Z,17.43
2018-11-13T07:04:16.225Z,14.20
2018-11-13T07:06:42.217Z,17.00
2018-11-13T07:09:08.166Z,15.03
2018-11-13T07:11:34.164Z,16.83
2018-11-13T07:14:00.115Z,14.10
2018-11-13T07:16:26.106Z,17.60
2018-11-13T07:18:52.063Z,19.13
2018-11-13T07:21:18.063Z,16.77
2018-11-13T07:23:44.766Z,21.80
2018-11-13T07:26:10.777Z,18.43
2018-11-13T07:28:36.751Z,17.40
2018-11-13T07:31:03.478Z,18.10
2018-11-13T07:33:29.435Z,18.20
2018-11-13T07:35:55.443Z,17.83
2018-11-13T07:38:22.158Z,18.13
2018-11-13T07:40:48.158Z,20.97
2018-11-13T07:43:14.130Z,15.03
2018-11-13T07:45:40.864Z,20.13
2018-11-13T07:48:07.588Z,14.17
2018-11-13T07:50:33.548Z,16.17
2018-11-13T07:52:59.529Z,21.13
2018-11-13T07:55:25.505Z,25.67
2018-11-13T07:57:51.496Z,21.80
2018-11-13T08:00:18.197Z,22.63
2018-11-13T08:02:44.180Z,19.97
2018-11-13T08:05:10.147Z,24.23
2018-11-13T08:07:36.150Z,24.83
2018-11-13T08:10:02.123Z,20.70
2018-11-13T08:12:28.863Z,20.13
2018-11-13T08:14:55.564Z,18.57
2018-11-13T08:17:21.558Z,19.87
2018-11-13T08:19:47.511Z,19.27
2018-11-13T08:22:13.568Z,15.87
2018-11-13T08:24:39.472Z,19.10
2018-11-13T08:27:06.173Z,16.03
2018-11-13T08:29:32.226Z,16.10
2018-11-13T08:31:58.177Z,21.33
2018-11-13T08:34:24.155Z,17.47
2018-11-13T08:36:50.115Z,15.07
2018-11-13T08:39:16.073Z,15.20
2018-11-13T08:41:42.022Z,14.17
2018-11-13T08:44:08.045Z,18.40
2018-11-13T08:46:34.027Z,17.00
2018-11-13T08:49:00.752Z,16.20
2018-11-13T08:51:26.702Z,16.57
2018-11-13T08:53:52.651Z,16.73
2018-11-13T08:56:18.658Z,15.83
2018-11-13T08:58:44.688Z,14.07
2018-11-13T09:01:10.673Z,21.17
2018-11-13T09:03:37.370Z,13.57
2018-11-13T09:06:03.390Z,13.13
2018-11-13T09:08:30.122Z,15.20
2018-11-13T09:10:56.152Z,14.47
2018-11-13T09:13:22.144Z,16.90
2018-11-13T09:15:48.145Z,13.27
2018-11-13T09:18:14.857Z,11.47
2018-11-13T09:20:40.827Z,13.83
2018-11-13T09:23:07.506Z,13.43
2018-11-13T09:25:33.466Z,13.20
2018-11-13T09:28:00.203Z,16.97
2018-11-13T09:30:26.434Z,13.73
2018-11-13T09:32:52.220Z,14.63
2018-11-13T09:35:18.229Z,12.83
2018-11-13T09:37:44.917Z,14.20
2018-11-13T09:40:10.875Z,11.13
2018-11-13T09:42:36.860Z,11.03
2018-11-13T09:45:03.575Z,11.80
2018-11-13T09:47:29.594Z,13.57
2018-11-13T09:49:55.553Z,13.07
2018-11-13T09:52:21.538Z,11.03
2018-11-13T09:54:47.524Z,12.20
2018-11-13T09:57:13.485Z,12.23
2018-11-13T09:59:39.482Z,12.47
2018-11-13T10:02:05.744Z,14.23
2018-11-13T10:04:32.044Z,12.83
2018-11-13T10:06:57.491Z,13.17
2018-11-13T10:09:23.502Z,11.83
2018-11-13T10:11:49.457Z,13.77
2018-11-13T10:14:16.183Z,13.93
2018-11-13T10:16:42.142Z,10.70
2018-11-13T10:19:08.118Z,11.93
2018-11-13T10:21:34.099Z,11.70
2018-11-13T10:24:00.052Z,13.67
2018-11-13T10:26:26.094Z,15.87
2018-11-13T10:28:52.113Z,15.73
2018-11-13T10:31:18.857Z,13.60
2018-11-13T10:33:44.883Z,12.13
2018-11-13T10:36:10.919Z,12.30
2018-11-13T10:38:36.885Z,13.23
2018-11-13T10:41:04.513Z,12.03
2018-11-13T10:43:30.515Z,13.53
2018-11-13T10:45:56.472Z,10.47
2018-11-13T10:48:23.198Z,9.73
2018-11-13T10:50:49.901Z,10.23
2018-11-13T10:53:15.896Z,10.97
2018-11-13T10:55:41.866Z,10.30
2018-11-13T10:58:07.849Z,11.83
2018-11-13T11:00:33.827Z,13.40
2018-11-13T11:03:00.571Z,12.07
2018-11-13T11:05:26.509Z,10.30
2018-11-13T11:07:52.512Z,11.67
2018-11-13T11:10:19.254Z,9.33
2018-11-13T11:12:46.026Z,14.03
2018-11-13T11:15:11.984Z,10.53
2018-11-13T11:17:37.959Z,10.03
2018-11-13T11:20:03.966Z,12.30
2018-11-13T11:22:30.679Z,10.73
2018-11-13T11:24:56.680Z,10.07
2018-11-13T11:27:22.650Z,10.57
2018-11-13T11:29:56.247Z,8.57
2018-11-13T11:32:22.967Z,7.83
2018-11-13T11:34:48.969Z,8.50
2018-11-13T11:37:14.937Z,10.40
2018-11-13T11:39:41.662Z,9.53
2018-11-13T11:42:07.629Z,10.57
2018-11-13T11:44:33.677Z,7.07
2018-11-13T11:46:59.604Z,9.20
2018-11-13T11:49:25.565Z,8.13
2018-11-13T11:51:52.329Z,8.77
2018-11-13T11:54:18.297Z,8.40
2018-11-13T11:56:44.281Z,5.63
2018-11-13T11:59:10.252Z,7.50
2018-11-13T12:01:36.242Z,6.60
2018-11-13T12:04:02.209Z,7.83
2018-11-13T12:06:28.189Z,8.77
2018-11-13T12:08:54.148Z,5.27
2018-11-13T12:11:20.142Z,5.60
2018-11-13T12:13:46.840Z,10.23
2018-11-13T12:16:13.567Z,6.87
2018-11-13T12:18:40.288Z,6.17
2018-11-13T12:21:06.286Z,4.70
2018-11-13T12:23:32.249Z,6.70
2018-11-13T12:25:59.028Z,5.87
2018-11-13T12:28:25.725Z,4.37
2018-11-13T12:30:51.678Z,4.57
2018-11-13T12:33:17.673Z,3.63
2018-11-13T12:35:44.388Z,5.30
2018-11-13T12:38:10.393Z,4.50
2018-11-13T12:40:36.377Z,3.60
2018-11-13T12:43:03.074Z,5.77
2018-11-13T12:45:29.071Z,6.43
2018-11-13T12:47:55.049Z,3.50
2018-11-13T12:50:21.783Z,2.77
2018-11-13T12:52:48.497Z,3.53
2018-11-13T12:55:14.492Z,1.43
2018-11-13T12:57:40.464Z,1.83
2018-11-13T13:00:06.638Z,1.73
2018-11-13T13:02:32.601Z,3.47
2018-11-13T13:04:58.707Z,1.90
2018-11-13T13:07:24.668Z,2.87
2018-11-13T13:09:51.379Z,2.30
2018-11-13T13:12:17.365Z,1.43
2018-11-13T13:14:43.405Z,1.50
2018-11-13T13:17:09.377Z,1.73
2018-11-13T13:19:35.344Z,4.00
2018-11-13T13:22:01.379Z,1.70
2018-11-13T13:24:27.334Z,2.60
2018-11-13T13:26:53.334Z,2.53
2018-11-13T13:29:19.311Z,2.77
2018-11-13T13:31:45.346Z,1.87
2018-11-13T13:34:11.341Z,1.97
2018-11-13T13:36:37.311Z,2.60
2018-11-13T13:39:03.299Z,2.73
2018-11-13T13:41:29.294Z,2.97
2018-11-13T13:43:56.038Z,1.40
2018-11-13T13:46:22.071Z,2.13
2018-11-13T13:48:48.048Z,2.83
2018-11-13T13:51:14.016Z,0.90
2018-11-13T13:53:40.788Z,2.60
2018-11-13T13:56:07.484Z,2.50
2018-11-13T13:58:33.473Z,2.13
2018-11-13T14:00:59.535Z,4.10
2018-11-13T14:03:25.430Z,3.43
2018-11-13T14:05:51.475Z,3.73
2018-11-13T14:08:17.462Z,1.33
2018-11-13T14:10:43.447Z,1.37
2018-11-13T14:13:10.149Z,1.40
2018-11-13T14:15:36.238Z,2.77
2018-11-13T14:18:02.187Z,1.00
2018-11-13T14:20:28.176Z,4.43
2018-11-13T14:22:54.185Z,1.23
2018-11-13T14:25:20.922Z,1.33
2018-11-13T14:27:47.678Z,1.93
2018-11-13T14:30:13.659Z,2.10
2018-11-13T14:32:39.670Z,1.77
2018-11-13T14:35:05.654Z,2.20
2018-11-13T14:37:31.657Z,2.27
2018-11-13T14:39:58.387Z,3.10
2018-11-13T14:42:24.653Z,2.30
2018-11-13T14:44:50.643Z,1.10
2018-11-13T14:47:17.359Z,1.47
2018-11-13T14:49:43.359Z,4.53
2018-11-13T14:52:09.336Z,3.40
2018-11-13T14:54:36.069Z,2.27
2018-11-13T14:57:02.787Z,3.50
2018-11-13T14:59:28.779Z,1.10
2018-11-13T15:01:54.750Z,2.97
2018-11-13T15:04:21.516Z,1.37
2018-11-13T15:06:47.509Z,2.97
2018-11-13T15:09:14.235Z,1.33
2018-11-13T15:11:40.244Z,3.10
2018-11-13T15:14:06.225Z,1.53
2018-11-13T15:16:32.209Z,1.40
2018-11-13T15:18:58.172Z,4.83
2018-11-13T15:21:24.891Z,2.33
2018-11-13T15:23:51.603Z,1.20
2018-11-13T15:26:17.594Z,3.10
2018-11-13T15:28:43.548Z,1.30
2018-11-13T15:31:09.630Z,2.20
2018-11-13T15:33:35.614Z,4.50
2018-11-13T15:36:01.570Z,1.67
2018-11-13T15:38:27.587Z,2.80
2018-11-13T15:40:53.558Z,7.20
2018-11-13T15:43:19.550Z,3.07
2018-11-13T15:45:45.519Z,2.90
2018-11-13T15:48:11.619Z,4.40
2018-11-13T15:50:37.607Z,2.43
2018-11-13T15:53:03.631Z,4.43
2018-11-13T15:55:29.635Z,3.80
2018-11-13T15:57:56.355Z,2.77
2018-11-13T16:00:22.341Z,1.97
2018-11-13T16:02:48.305Z,1.37
2018-11-13T16:05:14.319Z,4.40
2018-11-13T16:07:40.277Z,2.07
2018-11-13T16:10:07.097Z,2.70
2018-11-13T16:12:33.078Z,4.03
2018-11-13T16:14:59.779Z,1.03
2018-11-13T16:17:25.752Z,4.80
2018-11-13T16:19:51.746Z,1.13
2018-11-13T16:22:17.706Z,3.90
2018-11-13T16:24:43.696Z,3.13
2018-11-13T16:27:09.669Z,3.70
2018-11-13T16:29:35.648Z,7.93
2018-11-13T16:32:01.637Z,5.53
2018-11-13T16:34:27.636Z,5.10
2018-11-13T16:36:53.674Z,2.13
2018-11-13T16:39:19.626Z,5.27
2018-11-13T16:41:45.599Z,4.60
2018-11-13T16:44:11.596Z,6.30
2018-11-13T16:46:38.328Z,4.33
2018-11-13T16:49:04.337Z,2.87
2018-11-13T16:51:30.307Z,5.30
2018-11-13T16:53:58.170Z,2.37
2018-11-13T16:56:23.041Z,1.87
2018-11-13T16:58:49.142Z,1.20
2018-11-13T17:01:15.155Z,3.73
2018-11-13T17:03:41.948Z,4.10
2018-11-13T17:06:07.978Z,3.93
2018-11-13T17:08:34.631Z,2.90
2018-11-13T17:11:01.470Z,2.40
2018-11-13T17:13:27.398Z,2.27
2018-11-13T17:15:54.122Z,2.23
2018-11-13T17:18:20.080Z,5.43
2018-11-13T17:20:46.809Z,3.07
2018-11-13T17:23:13.506Z,2.43
2018-11-13T17:25:39.501Z,3.00
2018-11-13T17:28:05.514Z,5.90
2018-11-13T17:30:32.220Z,3.13
2018-11-13T17:32:58.206Z,1.93
2018-11-13T17:35:24.205Z,8.40
2018-11-13T17:37:50.225Z,5.43
2018-11-13T17:40:16.196Z,3.43
2018-11-13T17:42:42.206Z,3.03
2018-11-13T17:45:08.148Z,5.97
2018-11-13T17:47:34.166Z,2.17
2018-11-13T17:50:00.123Z,2.27
2018-11-13T17:52:26.888Z,7.33
2018-11-13T17:54:52.834Z,4.67
2018-11-13T17:57:18.833Z,5.60
2018-11-13T17:59:44.926Z,2.97
2018-11-13T18:02:10.876Z,2.93
2018-11-13T18:04:36.837Z,3.77
2018-11-13T18:07:02.830Z,3.70
2018-11-13T18:09:28.839Z,4.83
2018-11-13T18:11:55.539Z,2.87
2018-11-13T18:14:21.549Z,1.70
2018-11-13T18:16:47.513Z,1.53
2018-11-13T18:19:14.252Z,3.07
2018-11-13T18:21:40.300Z,2.00
2018-11-13T18:24:06.248Z,1.10
2018-11-13T18:26:32.232Z,3.60
2018-11-13T18:28:58.956Z,5.47
2018-11-13T18:31:24.964Z,4.83
2018-11-13T18:33:50.957Z,5.10
2018-11-13T18:36:16.952Z,2.90
2018-11-13T18:38:43.071Z,4.10
2018-11-13T18:41:08.949Z,3.30
2018-11-13T18:43:34.937Z,6.73
2018-11-13T18:46:00.892Z,3.37
2018-11-13T18:48:26.896Z,4.23
2018-11-13T18:50:52.865Z,2.93
2018-11-13T18:53:18.881Z,4.20
2018-11-13T18:55:44.857Z,1.47
2018-11-13T18:58:10.842Z,1.80
2018-11-13T19:00:37.676Z,3.13
2018-11-13T19:03:03.637Z,4.53
2018-11-13T19:05:29.601Z,2.40
2018-11-13T19:07:55.602Z,1.97
2018-11-13T19:10:21.578Z,3.10
2018-11-13T19:12:48.503Z,3.23
2018-11-13T19:15:14.315Z,4.30
2018-11-13T19:17:40.317Z,3.83
2018-11-13T19:20:06.463Z,5.93
2018-11-13T19:22:32.330Z,6.37
2018-11-13T19:24:58.292Z,4.33
2018-11-13T19:27:24.291Z,2.73
2018-11-13T19:29:50.320Z,4.73
2018-11-13T19:32:16.296Z,5.50
2018-11-13T19:34:43.005Z,1.90
2018-11-13T19:37:09.006Z,1.40
2018-11-13T19:39:34.989Z,5.43
2018-11-13T19:42:01.027Z,3.60
2018-11-13T19:44:27.078Z,3.17
2018-11-13T19:46:53.045Z,7.67
2018-11-13T19:49:19.875Z,5.90
2018-11-13T19:51:45.880Z,5.00
2018-11-13T19:54:11.956Z,1.63
2018-11-13T19:56:37.861Z,7.33
2018-11-13T19:59:03.890Z,8.73
2018-11-13T20:01:30.621Z,6.03
2018-11-13T20:03:56.614Z,2.80
2018-11-13T20:06:22.584Z,3.53
2018-11-13T20:08:48.589Z,1.80
2018-11-13T20:11:14.551Z,5.43
2018-11-13T20:13:40.556Z,1.93
2018-11-13T20:16:06.617Z,1.20
2018-11-13T20:18:32.537Z,2.27
2018-11-13T20:20:58.510Z,2.57
2018-11-13T20:23:24.535Z,3.40
2018-11-13T20:25:50.503Z,3.57
2018-11-13T20:28:16.506Z,4.50
2018-11-13T20:30:42.514Z,11.80
2018-11-13T20:33:08.501Z,2.80
2018-11-13T20:35:34.503Z,4.20
2018-11-13T20:38:01.929Z,3.60
2018-11-13T20:40:27.931Z,7.27
2018-11-13T20:42:54.642Z,2.03
2018-11-13T20:45:20.674Z,1.87
2018-11-13T20:47:46.665Z,3.43
2018-11-13T20:50:12.652Z,3.83
2018-11-13T20:52:39.358Z,2.53
2018-11-13T20:55:05.376Z,3.17
2018-11-13T20:57:31.375Z,7.27
2018-11-13T20:59:57.397Z,6.13
2018-11-13T21:02:23.412Z,4.30
2018-11-13T21:04:49.398Z,4.63
2018-11-13T21:07:15.392Z,3.47
2018-11-13T21:09:41.478Z,2.57
2018-11-13T21:12:08.173Z,4.70
2018-11-13T21:14:34.158Z,3.20
2018-11-13T21:17:00.302Z,5.80
2018-11-13T21:19:26.109Z,4.70
2018-11-13T21:21:52.079Z,4.83
2018-11-13T21:24:18.827Z,8.73
2018-11-13T21:26:45.662Z,3.57
2018-11-13T21:29:12.402Z,2.57
2018-11-13T21:31:39.119Z,8.50
2018-11-13T21:34:05.082Z,7.87
2018-11-13T21:36:31.101Z,4.07
2018-11-13T21:38:57.798Z,2.37
2018-11-13T21:41:23.814Z,6.80
2018-11-13T21:43:49.770Z,5.83
2018-11-13T21:46:15.934Z,6.40
2018-11-13T21:48:41.999Z,5.37
2018-11-13T21:51:08.157Z,11.13
2018-11-13T21:53:34.134Z,4.03
2018-11-13T21:56:00.119Z,5.47
2018-11-13T21:58:26.129Z,3.57
2018-11-13T22:00:52.297Z,5.90
2018-11-13T22:03:18.481Z,5.83
2018-11-13T22:05:45.207Z,6.53
2018-11-13T22:08:11.931Z,5.10
2018-11-13T22:10:38.666Z,7.53
2018-11-13T22:13:04.741Z,4.20
2018-11-13T22:15:30.684Z,6.70
2018-11-13T22:17:56.777Z,4.40
2018-11-13T22:20:22.757Z,2.97
2018-11-13T22:22:48.762Z,4.33
2018-11-13T22:25:14.744Z,4.97
2018-11-13T22:27:41.639Z,5.27
2018-11-13T22:30:07.521Z,7.37
2018-11-13T22:32:33.493Z,4.57
2018-11-13T22:34:59.484Z,5.50
2018-11-13T22:37:25.458Z,5.63
2018-11-13T22:39:51.503Z,9.00
2018-11-13T22:42:17.437Z,6.73
2018-11-13T22:44:43.435Z,5.20
2018-11-13T22:47:10.154Z,6.43
2018-11-13T22:49:36.127Z,8.57
2018-11-13T22:52:02.103Z,7.23
2018-11-13T22:54:28.074Z,5.70
2018-11-13T22:56:54.072Z,4.50
2018-11-13T22:59:20.784Z,10.10
2018-11-13T23:01:46.791Z,7.13
2018-11-13T23:04:12.806Z,7.93
2018-11-13T23:06:38.830Z,12.47
2018-11-13T23:09:04.819Z,9.80
2018-11-13T23:11:30.795Z,7.13
2018-11-13T23:13:56.786Z,6.87
2018-11-13T23:16:22.771Z,8.50
2018-11-13T23:18:49.506Z,6.43
2018-11-13T23:21:16.236Z,7.43
2018-11-13T23:23:42.229Z,11.87
2018-11-13T23:26:08.214Z,8.63
2018-11-13T23:28:34.241Z,7.90
2018-11-13T23:31:00.215Z,10.20
2018-11-13T23:33:26.963Z,10.50
2018-11-13T23:35:52.947Z,13.87
2018-11-13T23:38:18.913Z,8.03
2018-11-13T23:40:44.928Z,10.70
2018-11-13T23:43:10.930Z,10.87
2018-11-13T23:45:36.953Z,11.73
2018-11-13T23:48:02.919Z,13.77
2018-11-13T23:50:29.660Z,12.17
2018-11-13T23:52:56.376Z,9.70
2018-11-13T23:55:23.143Z,9.50
2018-11-13T23:57:49.846Z,7.43
